createdAt,value
2023-04-03T00:00:51.434Z,66.40
2023-04-03T00:03:19.384Z,66.44
2023-04-03T00:05:46.680Z,66.17
2023-04-03T00:08:13.230Z,66.27
2023-04-03T00:10:39.941Z,66.14
2023-04-03T00:13:07.754Z,65.95
2023-04-03T00:15:34.582Z,66.76
2023-04-03T00:18:01.495Z,67.42
2023-04-03T00:20:28.501Z,67.03
2023-04-03T00:22:55.006Z,67.38
2023-04-03T00:25:21.645Z,67.15
2023-04-03T00:27:48.129Z,67.56
2023-04-03T00:30:16.902Z,67.89
2023-04-03T00:32:43.371Z,67.54
2023-04-03T00:35:10.709Z,67.83
2023-04-03T00:37:37.484Z,68.31
2023-04-03T00:40:04.625Z,68.11
2023-04-03T00:42:31.269Z,68.80
2023-04-03T00:44:57.687Z,69.28
2023-04-03T00:47:24.756Z,69.87
2023-04-03T00:49:52.118Z,70.00
2023-04-03T00:52:20.761Z,68.89
2023-04-03T00:54:48.873Z,69.22
2023-04-03T00:57:16.380Z,69.54
2023-04-03T00:59:50.771Z,70.15
2023-04-03T01:02:17.545Z,69.93
2023-04-03T01:04:44.496Z,70.20
2023-04-03T01:07:17.787Z,69.15
2023-04-03T01:09:46.380Z,69.47
2023-04-03T01:12:25.638Z,70.17
2023-04-03T01:15:01.202Z,69.02
2023-04-03T01:17:33.847Z,69.98
2023-04-03T01:20:15.445Z,69.21
2023-04-03T01:23:11.167Z,70.08
2023-04-03T01:25:48.185Z,70.06
2023-04-03T01:28:17.852Z,69.97
2023-04-03T01:30:48.957Z,69.23
2023-04-03T01:33:15.455Z,68.46
2023-04-03T01:35:41.942Z,67.90
2023-04-03T01:38:08.417Z,69.31
2023-04-03T01:40:35.196Z,68.16
2023-04-03T01:43:01.872Z,68.87
2023-04-03T01:45:28.394Z,68.99
2023-04-03T01:47:55.300Z,68.58
2023-04-03T01:50:21.748Z,68.47
2023-04-03T01:52:48.232Z,68.23
2023-04-03T01:55:14.724Z,68.37
2023-04-03T01:57:41.209Z,68.44
2023-04-03T02:00:08.818Z,69.19
2023-04-03T02:02:35.600Z,69.38
2023-04-03T02:05:02.218Z,69.39
2023-04-03T02:07:28.684Z,69.10
2023-04-03T02:09:55.311Z,68.52
2023-04-03T02:12:21.792Z,68.12
2023-04-03T02:14:48.223Z,68.21
2023-04-03T02:17:14.755Z,68.35
2023-04-03T02:19:41.457Z,69.48
2023-04-03T02:22:08.002Z,69.06
2023-04-03T02:24:34.438Z,67.92
2023-04-03T02:27:01.032Z,68.00
2023-04-03T02:29:27.473Z,68.73
2023-04-03T02:31:53.918Z,68.75
2023-04-03T02:34:20.377Z,68.10
2023-04-03T02:36:46.821Z,68.73
2023-04-03T02:39:13.364Z,68.52
2023-04-03T02:41:39.833Z,68.36
2023-04-03T02:44:07.716Z,66.83
2023-04-03T02:46:34.322Z,68.25
2023-04-03T02:49:00.809Z,68.80
2023-04-03T02:51:27.390Z,67.49
2023-04-03T02:53:53.885Z,67.91
2023-04-03T02:56:21.218Z,68.71
2023-04-03T02:58:47.752Z,68.42
2023-04-03T03:01:14.394Z,68.32
2023-04-03T03:03:40.986Z,68.32
2023-04-03T03:06:13.810Z,68.25
2023-04-03T03:08:41.001Z,67.59
2023-04-03T03:11:08.014Z,68.01
2023-04-03T03:13:34.843Z,68.43
2023-04-03T03:16:01.638Z,68.82
2023-04-03T03:18:28.603Z,69.41
2023-04-03T03:20:56.719Z,68.58
2023-04-03T03:23:24.050Z,68.19
2023-04-03T03:25:50.569Z,69.25
2023-04-03T03:28:16.993Z,68.57
2023-04-03T03:30:43.424Z,69.43
2023-04-03T03:33:09.900Z,69.57
2023-04-03T03:35:36.575Z,67.93
2023-04-03T03:38:03.294Z,69.12
2023-04-03T03:40:29.787Z,68.76
2023-04-03T03:42:56.237Z,69.66
2023-04-03T03:45:22.709Z,69.41
2023-04-03T03:47:49.160Z,69.23
2023-04-03T03:50:15.784Z,68.37
2023-04-03T03:52:42.275Z,68.25
2023-04-03T03:55:08.998Z,68.09
2023-04-03T03:57:35.487Z,68.68
2023-04-03T04:00:01.960Z,68.21
2023-04-03T04:02:28.714Z,69.47
2023-04-03T04:04:55.365Z,68.12
2023-04-03T04:07:21.893Z,68.11
2023-04-03T04:09:48.423Z,68.44
2023-04-03T04:12:14.957Z,67.89
2023-04-03T04:14:41.443Z,68.21
2023-04-03T04:17:07.905Z,68.54
2023-04-03T04:19:34.411Z,68.33
2023-04-03T04:22:00.867Z,69.34
2023-04-03T04:24:27.390Z,68.97
2023-04-03T04:26:53.856Z,67.75
2023-04-03T04:29:20.422Z,68.77
2023-04-03T04:31:46.888Z,68.19
2023-04-03T04:34:14.108Z,68.35
2023-04-03T04:36:41.182Z,67.68
2023-04-03T04:39:07.799Z,67.25
2023-04-03T04:41:35.342Z,67.89
2023-04-03T04:44:01.812Z,67.84
2023-04-03T04:46:28.313Z,67.40
2023-04-03T04:48:54.822Z,67.45
2023-04-03T04:51:21.618Z,67.34
2023-04-03T04:53:48.188Z,67.19
2023-04-03T04:56:14.650Z,67.25
2023-04-03T04:58:41.219Z,67.64
2023-04-03T05:01:09.700Z,67.15
2023-04-03T05:03:37.029Z,68.03
2023-04-03T05:06:03.618Z,68.17
2023-04-03T05:08:30.414Z,68.17
2023-04-03T05:10:56.850Z,67.77
2023-04-03T05:13:23.592Z,67.48
2023-04-03T05:15:50.311Z,67.46
2023-04-03T05:18:16.832Z,67.07
2023-04-03T05:20:44.383Z,67.57
2023-04-03T05:23:12.201Z,67.89
2023-04-03T05:25:39.563Z,67.50
2023-04-03T05:28:06.336Z,67.37
2023-04-03T05:30:32.810Z,67.95
2023-04-03T05:33:00.389Z,67.77
2023-04-03T05:35:26.918Z,67.29
2023-04-03T05:37:53.620Z,67.56
2023-04-03T05:40:20.170Z,67.95
2023-04-03T05:42:46.752Z,67.47
2023-04-03T05:45:13.257Z,67.79
2023-04-03T05:47:39.791Z,67.47
2023-04-03T05:50:06.737Z,67.82
2023-04-03T05:52:36.963Z,69.33
2023-04-03T05:55:03.857Z,68.63
2023-04-03T05:57:30.544Z,67.74
2023-04-03T05:59:57.083Z,68.04
2023-04-03T06:02:25.386Z,67.81
2023-04-03T06:04:52.359Z,67.93
2023-04-03T06:07:22.156Z,68.70
2023-04-03T06:09:49.396Z,68.32
2023-04-03T06:12:18.369Z,68.98
2023-04-03T06:14:44.867Z,68.59
2023-04-03T06:17:16.522Z,69.24
2023-04-03T06:19:43.437Z,68.90
2023-04-03T06:22:09.920Z,68.46
2023-04-03T06:24:37.031Z,68.41
2023-04-03T06:27:03.687Z,69.43
2023-04-03T06:29:30.635Z,68.65
2023-04-03T06:31:57.231Z,69.26
2023-04-03T06:34:24.000Z,71.40
2023-04-03T06:36:51.662Z,72.42
2023-04-03T06:39:23.560Z,71.86
2023-04-03T06:41:51.125Z,70.10
2023-04-03T06:44:17.912Z,70.09
2023-04-03T06:46:46.373Z,70.05
2023-04-03T06:49:13.530Z,70.03
2023-04-03T06:51:40.216Z,70.75
2023-04-03T06:54:09.228Z,72.02
2023-04-03T06:56:36.152Z,71.68
2023-04-03T06:59:03.244Z,71.57
2023-04-03T07:01:31.000Z,71.24
2023-04-03T07:03:58.206Z,71.84
2023-04-03T07:06:27.724Z,69.59
2023-04-03T07:08:54.530Z,69.78
2023-04-03T07:11:21.491Z,71.50
2023-04-03T07:13:48.014Z,70.43
2023-04-03T07:16:14.472Z,71.56
2023-04-03T07:18:41.052Z,72.55
2023-04-03T07:21:07.605Z,72.21
2023-04-03T07:23:34.195Z,74.21
2023-04-03T07:26:00.696Z,72.83
2023-04-03T07:28:27.184Z,73.02
2023-04-03T07:31:14.700Z,74.65
2023-04-03T07:33:41.876Z,74.14
2023-04-03T07:36:09.562Z,74.83
2023-04-03T07:38:37.063Z,70.95
2023-04-03T07:41:04.328Z,71.46
2023-04-03T07:43:31.068Z,69.79
2023-04-03T07:45:57.922Z,69.28
2023-04-03T07:48:26.560Z,66.28
2023-04-03T07:50:53.252Z,65.71
2023-04-03T07:53:19.784Z,63.62
2023-04-03T07:55:50.091Z,64.44
2023-04-03T07:58:18.728Z,63.09
2023-04-03T08:00:45.960Z,60.47
2023-04-03T08:03:14.025Z,59.49
2023-04-03T08:05:42.533Z,58.67
2023-04-03T08:08:09.625Z,52.89
2023-04-03T08:10:36.221Z,52.52
2023-04-03T08:13:03.324Z,52.84
2023-04-03T08:15:31.001Z,55.40
2023-04-03T08:17:57.614Z,53.14
2023-04-03T08:20:24.112Z,53.42
2023-04-03T08:22:50.655Z,51.34
2023-04-03T08:25:18.470Z,51.64
2023-04-03T08:27:45.380Z,51.39
2023-04-03T08:30:12.371Z,50.68
2023-04-03T08:32:38.884Z,48.85
2023-04-03T08:35:06.126Z,49.01
2023-04-03T08:37:32.906Z,46.12
2023-04-03T08:39:59.371Z,46.13
2023-04-03T08:43:05.191Z,45.99
2023-04-03T08:45:49.474Z,45.39
2023-04-03T08:48:29.143Z,46.64
2023-04-03T08:51:03.096Z,46.77
2023-04-03T08:53:33.627Z,46.88
2023-04-03T08:56:04.717Z,47.03
2023-04-03T08:58:42.789Z,45.74
2023-04-03T09:01:36.618Z,45.61
2023-04-03T09:04:03.699Z,48.22
2023-04-03T09:06:33.898Z,45.56
2023-04-03T09:09:08.290Z,45.77
2023-04-03T09:11:47.487Z,44.98
2023-04-03T09:14:35.379Z,43.78
2023-04-03T09:17:08.166Z,42.17
2023-04-03T09:19:37.580Z,41.88
2023-04-03T09:22:15.194Z,42.87
2023-04-03T09:24:42.507Z,42.67
2023-04-03T09:27:11.882Z,44.28
2023-04-03T09:29:47.199Z,43.54
2023-04-03T09:32:23.165Z,43.56
2023-04-03T09:34:50.149Z,44.92
2023-04-03T09:37:34.428Z,45.84
2023-04-03T09:40:01.744Z,44.76
2023-04-03T09:42:29.394Z,42.61
2023-04-03T09:45:05.895Z,40.97
2023-04-03T09:47:40.361Z,41.05
2023-04-03T09:50:21.570Z,41.28
2023-04-03T09:52:53.705Z,42.67
2023-04-03T09:55:30.469Z,42.81
2023-04-03T09:58:02.672Z,41.90
2023-04-03T10:00:38.636Z,42.78
2023-04-03T10:03:07.316Z,40.06
2023-04-03T10:05:42.479Z,40.69
2023-04-03T10:08:20.670Z,41.21
2023-04-03T10:10:49.141Z,40.45
2023-04-03T10:13:21.409Z,40.27
2023-04-03T10:15:56.557Z,39.33
2023-04-03T10:18:43.143Z,39.74
2023-04-03T10:21:27.835Z,40.05
2023-04-03T10:24:15.717Z,38.55
2023-04-03T10:27:07.767Z,39.58
2023-04-03T10:29:34.185Z,41.48
2023-04-03T10:32:17.696Z,40.74
2023-04-03T10:34:54.756Z,38.62
2023-04-03T10:37:37.778Z,38.51
2023-04-03T10:40:26.043Z,38.09
2023-04-03T10:43:01.817Z,39.34
2023-04-03T10:45:51.209Z,39.16
2023-04-03T10:48:30.915Z,39.54
2023-04-03T10:51:31.297Z,39.07
2023-04-03T10:54:05.986Z,38.79
2023-04-03T10:57:11.860Z,38.87
2023-04-03T11:00:02.699Z,38.78
2023-04-03T11:02:40.707Z,38.23
2023-04-03T11:05:19.606Z,39.37
2023-04-03T11:07:51.888Z,38.68
2023-04-03T11:10:48.336Z,41.84
2023-04-03T11:13:26.329Z,42.20
2023-04-03T11:15:54.612Z,40.06
2023-04-03T11:18:34.485Z,39.01
2023-04-03T11:21:18.778Z,38.80
2023-04-03T11:23:50.063Z,38.77
2023-04-03T11:26:19.731Z,37.64
2023-04-03T11:28:47.274Z,38.56
2023-04-03T11:31:25.204Z,38.47
2023-04-03T11:34:07.384Z,37.21
2023-04-03T11:36:40.738Z,36.55
2023-04-03T11:39:26.720Z,37.89
2023-04-03T11:42:03.276Z,38.44
2023-04-03T11:44:39.380Z,38.29
2023-04-03T11:47:09.180Z,38.07
2023-04-03T11:49:54.902Z,39.11
2023-04-03T11:52:44.729Z,39.58
2023-04-03T11:55:31.587Z,38.37
2023-04-03T11:58:04.200Z,37.72
2023-04-03T12:00:45.890Z,38.04
2023-04-03T12:03:24.335Z,36.81
2023-04-03T12:05:51.832Z,37.24
2023-04-03T12:08:33.694Z,39.83
2023-04-03T12:11:17.668Z,39.59
2023-04-03T12:13:50.435Z,41.02
2023-04-03T12:16:21.639Z,41.31
2023-04-03T12:18:54.289Z,40.20
2023-04-03T12:21:25.012Z,39.88
2023-04-03T12:24:09.853Z,38.15
2023-04-03T12:26:48.740Z,36.34
2023-04-03T12:29:22.895Z,36.88
2023-04-03T12:32:08.296Z,36.04
2023-04-03T12:34:45.113Z,37.85
2023-04-03T12:37:39.527Z,39.28
2023-04-03T12:40:31.061Z,39.47
2023-04-03T12:43:19.222Z,39.97
2023-04-03T12:45:53.622Z,38.98
2023-04-03T12:48:26.187Z,37.58
2023-04-03T12:50:52.909Z,37.86
2023-04-03T12:53:23.801Z,36.88
2023-04-03T12:55:57.803Z,36.00
2023-04-03T12:58:27.553Z,37.28
2023-04-03T13:01:24.653Z,38.30
2023-04-03T13:03:54.570Z,37.71
2023-04-03T13:06:25.025Z,36.24
2023-04-03T13:08:58.078Z,36.75
2023-04-03T13:11:26.303Z,37.88
2023-04-03T13:13:57.612Z,38.99
2023-04-03T13:16:24.611Z,37.82
2023-04-03T13:18:52.942Z,39.16
2023-04-03T13:21:24.286Z,39.06
2023-04-03T13:24:00.602Z,40.79
2023-04-03T13:26:34.283Z,39.57
2023-04-03T13:29:05.104Z,39.95
2023-04-03T13:31:33.711Z,40.61
2023-04-03T13:34:20.093Z,40.19
2023-04-03T13:36:57.024Z,38.20
2023-04-03T13:39:38.106Z,37.64
2023-04-03T13:42:23.981Z,39.09
2023-04-03T13:44:50.581Z,39.27
2023-04-03T13:47:24.501Z,40.08
2023-04-03T13:50:21.418Z,40.08
2023-04-03T13:52:51.570Z,40.01
2023-04-03T13:55:25.670Z,39.05
2023-04-03T13:58:04.668Z,39.04
2023-04-03T14:00:38.473Z,39.35
2023-04-03T14:03:24.845Z,40.89
2023-04-03T14:05:51.712Z,39.15
2023-04-03T14:08:22.118Z,41.13
2023-04-03T14:10:53.775Z,41.11
2023-04-03T14:13:21.391Z,40.63
2023-04-03T14:15:49.596Z,39.45
2023-04-03T14:18:22.378Z,40.69
2023-04-03T14:20:50.993Z,42.15
2023-04-03T14:23:17.540Z,41.76
2023-04-03T14:25:44.794Z,41.31
2023-04-03T14:28:21.836Z,40.99
2023-04-03T14:30:49.843Z,40.23
2023-04-03T14:33:19.186Z,40.62
2023-04-03T14:35:45.958Z,41.15
2023-04-03T14:38:23.430Z,42.16
2023-04-03T14:40:50.271Z,43.00
2023-04-03T14:43:17.483Z,42.10
2023-04-03T14:45:43.933Z,42.58
2023-04-03T14:48:21.419Z,42.57
2023-04-03T14:50:58.204Z,42.33
2023-04-03T14:53:38.917Z,42.54
2023-04-03T14:56:13.456Z,41.63
2023-04-03T14:58:39.941Z,41.32
2023-04-03T15:01:06.397Z,41.75
2023-04-03T15:03:33.393Z,41.29
2023-04-03T15:06:00.278Z,41.36
2023-04-03T15:08:30.582Z,42.10
2023-04-03T15:10:59.251Z,42.20
2023-04-03T15:13:26.634Z,40.63
2023-04-03T15:15:53.696Z,41.25
2023-04-03T15:18:24.328Z,40.89
2023-04-03T15:20:50.992Z,42.49
2023-04-03T15:23:18.069Z,41.42
2023-04-03T15:25:46.241Z,43.22
2023-04-03T15:28:22.693Z,43.61
2023-04-03T15:30:49.144Z,42.72
2023-04-03T15:33:16.903Z,43.66
2023-04-03T15:35:43.899Z,42.94
2023-04-03T15:38:11.321Z,43.21
2023-04-03T15:40:38.361Z,42.58
2023-04-03T15:43:06.262Z,44.10
2023-04-03T15:45:33.480Z,43.71
2023-04-03T15:48:00.390Z,44.37
2023-04-03T15:50:26.953Z,45.13
2023-04-03T15:52:55.494Z,43.75
2023-04-03T15:55:23.790Z,42.29
2023-04-03T15:57:50.292Z,42.74
2023-04-03T16:00:17.462Z,44.43
2023-04-03T16:02:45.123Z,43.62
2023-04-03T16:05:13.004Z,43.37
2023-04-03T16:07:40.001Z,42.92
2023-04-03T16:10:08.274Z,44.09
2023-04-03T16:12:35.816Z,43.79
2023-04-03T16:15:02.492Z,43.97
2023-04-03T16:17:29.272Z,42.67
2023-04-03T16:19:56.665Z,43.21
2023-04-03T16:22:25.549Z,43.91
2023-04-03T16:24:56.243Z,44.45
2023-04-03T16:27:23.473Z,44.55
2023-04-03T16:29:50.914Z,44.90
2023-04-03T16:32:17.603Z,44.96
2023-04-03T16:34:44.996Z,44.48
2023-04-03T16:37:11.524Z,43.81
2023-04-03T16:39:38.041Z,43.73
2023-04-03T16:42:06.281Z,45.07
2023-04-03T16:44:32.769Z,44.47
2023-04-03T16:46:59.900Z,45.12
2023-04-03T16:49:27.128Z,46.21
2023-04-03T16:51:53.567Z,46.38
2023-04-03T16:54:20.024Z,45.76
2023-04-03T16:56:46.477Z,45.88
2023-04-03T16:59:12.984Z,45.69
2023-04-03T17:01:39.498Z,46.58
2023-04-03T17:04:06.692Z,46.44
2023-04-03T17:06:33.178Z,46.55
2023-04-03T17:08:59.639Z,46.98
2023-04-03T17:11:26.740Z,47.16
2023-04-03T17:13:53.313Z,47.13
2023-04-03T17:16:20.012Z,47.18
2023-04-03T17:18:47.000Z,47.61
2023-04-03T17:21:13.998Z,47.87
2023-04-03T17:23:41.849Z,48.30
2023-04-03T17:26:08.314Z,47.68
2023-04-03T17:28:35.059Z,47.82
2023-04-03T17:31:02.370Z,48.37
2023-04-03T17:33:31.076Z,48.32
2023-04-03T17:36:00.053Z,48.03
2023-04-03T17:38:30.891Z,48.66
2023-04-03T17:40:59.352Z,48.63
2023-04-03T17:43:26.122Z,48.35
2023-04-03T17:45:52.786Z,49.37
2023-04-03T17:48:19.891Z,47.72
2023-04-03T17:50:46.338Z,49.78
2023-04-03T17:53:13.072Z,49.91
2023-04-03T17:55:40.120Z,50.28
2023-04-03T17:58:06.902Z,49.96
2023-04-03T18:00:33.404Z,50.13
2023-04-03T18:02:59.941Z,50.53
2023-04-03T18:05:30.408Z,50.60
2023-04-03T18:07:58.133Z,50.95
2023-04-03T18:10:25.073Z,51.42
2023-04-03T18:12:53.126Z,51.22
2023-04-03T18:15:19.970Z,51.43
2023-04-03T18:17:47.257Z,51.68
2023-04-03T18:20:15.260Z,52.32
2023-04-03T18:22:41.918Z,51.80
2023-04-03T18:25:08.820Z,51.16
2023-04-03T18:27:35.342Z,51.52
2023-04-03T18:30:07.175Z,51.60
2023-04-03T18:32:34.859Z,51.59
2023-04-03T18:35:02.297Z,51.96
2023-04-03T18:37:28.768Z,52.45
2023-04-03T18:39:55.363Z,54.10
2023-04-03T18:42:23.737Z,54.79
2023-04-03T18:44:53.747Z,55.44
2023-04-03T18:47:20.937Z,56.07
2023-04-03T18:49:48.030Z,56.03
2023-04-03T18:52:14.688Z,55.38
2023-04-03T18:54:43.037Z,55.55
2023-04-03T18:57:09.594Z,55.44
2023-04-03T18:59:43.643Z,55.81
2023-04-03T19:02:11.822Z,56.65
2023-04-03T19:04:42.952Z,57.75
2023-04-03T19:07:11.025Z,57.14
2023-04-03T19:09:40.187Z,56.33
2023-04-03T19:12:09.026Z,56.26
2023-04-03T19:14:38.308Z,57.06
2023-04-03T19:17:08.629Z,57.47
2023-04-03T19:19:37.072Z,57.67
2023-04-03T19:22:04.974Z,58.22
2023-04-03T19:24:32.663Z,58.03
2023-04-03T19:27:01.404Z,58.50
2023-04-03T19:29:28.438Z,59.09
2023-04-03T19:31:57.293Z,58.83
2023-04-03T19:34:24.563Z,59.16
2023-04-03T19:36:52.450Z,59.20
2023-04-03T19:39:26.200Z,59.27
2023-04-03T19:41:54.328Z,59.65
2023-04-03T19:44:22.307Z,59.31
2023-04-03T19:46:51.179Z,59.66
2023-04-03T19:49:21.310Z,60.59
2023-04-03T19:51:50.677Z,61.24
2023-04-03T19:54:17.609Z,61.98
2023-04-03T19:56:46.654Z,61.81
2023-04-03T19:59:14.134Z,60.33
2023-04-03T20:01:41.064Z,60.14
2023-04-03T20:04:08.046Z,61.28
2023-04-03T20:06:35.084Z,60.21
2023-04-03T20:09:18.245Z,60.73
2023-04-03T20:11:48.080Z,61.01
2023-04-03T20:14:16.796Z,60.68
2023-04-03T20:16:44.656Z,60.35
2023-04-03T20:19:11.744Z,61.23
2023-04-03T20:21:38.834Z,61.95
2023-04-03T20:24:08.831Z,61.63
2023-04-03T20:26:42.116Z,61.10
2023-04-03T20:29:08.694Z,61.68
2023-04-03T20:31:35.650Z,60.68
2023-04-03T20:34:03.008Z,61.26
2023-04-03T20:36:31.220Z,62.47
2023-04-03T20:38:57.894Z,62.12
2023-04-03T20:41:24.914Z,61.97
2023-04-03T20:43:51.743Z,61.61
2023-04-03T20:46:20.290Z,61.27
2023-04-03T20:48:50.311Z,60.48
2023-04-03T20:51:18.918Z,62.03
2023-04-03T20:53:46.792Z,63.09
2023-04-03T20:56:14.237Z,62.18
2023-04-03T20:58:43.515Z,62.65
2023-04-03T21:01:21.830Z,62.62
2023-04-03T21:03:49.847Z,63.06
2023-04-03T21:06:55.462Z,64.06
2023-04-03T21:09:59.531Z,63.84
2023-04-03T21:13:04.063Z,63.31
2023-04-03T21:15:49.373Z,63.83
2023-04-03T21:18:50.434Z,63.15
2023-04-03T21:21:19.796Z,62.64
2023-04-03T21:23:48.441Z,63.48
2023-04-03T21:26:16.042Z,63.57
2023-04-03T21:28:42.785Z,63.82
2023-04-03T21:31:11.580Z,64.21
2023-04-03T21:33:38.551Z,64.53
2023-04-03T21:36:05.230Z,63.91
2023-04-03T21:38:32.481Z,63.80
2023-04-03T21:41:00.536Z,63.11
2023-04-03T21:43:27.218Z,63.48
2023-04-03T21:45:58.657Z,63.66
2023-04-03T21:48:30.893Z,64.51
2023-04-03T21:51:04.966Z,63.61
2023-04-03T21:53:32.487Z,64.11
2023-04-03T21:56:00.317Z,63.80
2023-04-03T21:58:31.064Z,64.18
2023-04-03T22:00:58.681Z,63.83
2023-04-03T22:03:25.654Z,63.50
2023-04-03T22:05:52.193Z,63.56
2023-04-03T22:08:18.780Z,64.35
2023-04-03T22:10:45.314Z,64.57
2023-04-03T22:13:11.782Z,64.84
2023-04-03T22:15:42.985Z,64.94
2023-04-03T22:18:10.985Z,64.46
2023-04-03T22:20:38.314Z,63.89
2023-04-03T22:23:05.989Z,63.91
2023-04-03T22:25:33.962Z,65.02
2023-04-03T22:28:03.374Z,63.95
2023-04-03T22:30:30.567Z,64.82
2023-04-03T22:32:57.046Z,65.71
2023-04-03T22:35:27.624Z,65.55
2023-04-03T22:37:54.123Z,66.91
2023-04-03T22:40:20.581Z,65.83
2023-04-03T22:42:50.209Z,65.75
2023-04-03T22:45:16.805Z,65.67
2023-04-03T22:47:43.339Z,66.19
2023-04-03T22:50:10.413Z,65.62
2023-04-03T22:52:36.848Z,66.48
2023-04-03T22:55:16.545Z,66.20
2023-04-03T22:57:48.613Z,66.52
2023-04-03T23:00:16.455Z,67.18
2023-04-03T23:02:43.393Z,66.78
2023-04-03T23:05:10.143Z,67.41
2023-04-03T23:07:36.844Z,67.15
2023-04-03T23:10:03.505Z,65.92
2023-04-03T23:12:29.924Z,65.88
2023-04-03T23:14:56.391Z,66.56
2023-04-03T23:17:22.886Z,67.36
2023-04-03T23:19:49.394Z,67.44
2023-04-03T23:22:15.888Z,67.14
2023-04-03T23:24:42.608Z,67.71
2023-04-03T23:27:09.102Z,67.70
2023-04-03T23:29:35.719Z,68.77
2023-04-03T23:32:02.256Z,67.97
2023-04-03T23:34:28.876Z,67.72
2023-04-03T23:36:55.481Z,66.15
2023-04-03T23:39:23.158Z,67.07
2023-04-03T23:41:50.166Z,66.95
2023-04-03T23:44:17.149Z,67.12
2023-04-03T23:46:43.643Z,66.90
2023-04-03T23:49:10.116Z,67.74
2023-04-03T23:57:58.568Z,66.62
